Impacts TAF Board
For situational awareness. Not to be used for flight planning purposes.
IDs:

KHOU - Houston/Hobby Arpt, TX, US

Issued at 0526 UTC 18 Sep 2021
Updated at 0719 UTC 18 Sep 2021
Potential Impact None Slight Moderate High
Time0653Z 18/08Z 18/09Z 18/10Z 18/11Z 18/12Z 18/13Z 18/14Z 18/15Z 18/16Z 18/17Z 18/18Z 18/19Z 18/20Z>>
Type OBS PRVL PRVL PRVL PRVL PRVL PRVL PRVL PRVL PRVL PRVL PRVL PRVL PRVL
VIS 10 >6 >6 >6 >6 >6 >6 >6 >6 >6 >6 >6 >6 >6
CIG -- -- -- -- -- -- -- -- -- -- -- -- 40 40
Cover CLR SKC SKC SKC SKC SKC SKC SKC SCT SCT SCT SCT BKN BKN
FltCat VFR VFR VFR VFR VFR VFR VFR VFR VFR VFR VFR VFR VFR VFR
WX -- -- -- -- -- -- -- -- VCSH VCSH VCSH VCSH VCTS VCTS
WDir 200 VRB VRB VRB VRB VRB VRB VRB 330 330 330 330 360 360
WSpd 3 0 0 0 0 0 0 0 5 5 5 5 7 7
WGst -- -- -- -- -- -- -- -- -- -- -- -- -- --
Raw TAF
KHOU 180526Z 1806/1906 00000KT P6SM SKC
  FM181500 33005KT P6SM VCSH FEW030 SCT250
  FM181900 36007KT P6SM VCTS BKN040CB
  FM182300 VRB04KT P6SM FEW040


Raw METAR
KHOU 180653Z 20003KT 10SM CLR 25/23 A2998 RMK AO2 SLP156 T02500228
KHOU 180553Z 21003KT 10SM CLR 26/23 A2997 RMK AO2 SLP153 T02560228 10306 20250 403330233 53003
KHOU 180453Z 18003KT 10SM CLR 26/23 A2997 RMK AO2 SLP152 T02560228

METAR Board
Radar Display
Forecast Discussion
For situational awareness. Not to be used for flight planning purposes.